sensor_id;sensor_type;location;lat;lon;timestamp;pressure;altitude;pressure_sealevel;temperature;humidity
3178;BME280;38141;42.666;23.344;2023-09-07T00:00:48;95180.66;;;21.56;100.00
3178;BME280;38141;42.666;23.344;2023-09-07T00:03:15;95179.13;;;21.42;100.00
3178;BME280;38141;42.666;23.344;2023-09-07T00:05:42;95148.00;;;21.04;100.00
3178;BME280;38141;42.666;23.344;2023-09-07T00:08:09;95141.06;;;20.99;100.00
3178;BME280;38141;42.666;23.344;2023-09-07T00:10:36;95152.19;;;21.08;100.00
3178;BME280;38141;42.666;23.344;2023-09-07T00:13:04;95112.13;;;20.95;100.00
3178;BME280;38141;42.666;23.344;2023-09-07T00:15:37;95167.78;;;21.15;100.00
3178;BME280;38141;42.666;23.344;2023-09-07T00:18:04;95144.22;;;20.72;100.00
3178;BME280;38141;42.666;23.344;2023-09-07T00:20:31;95085.66;;;20.47;100.00
3178;BME280;38141;42.666;23.344;2023-09-07T00:22:59;95108.47;;;20.60;100.00
3178;BME280;38141;42.666;23.344;2023-09-07T00:25:27;95096.13;;;20.52;100.00
3178;BME280;38141;42.666;23.344;2023-09-07T00:27:54;95167.47;;;20.84;100.00
3178;BME280;38141;42.666;23.344;2023-09-07T00:30:22;95122.41;;;20.53;100.00
3178;BME280;38141;42.666;23.344;2023-09-07T00:32:50;95182.47;;;20.96;100.00
3178;BME280;38141;42.666;23.344;2023-09-07T00:35:17;95073.59;;;20.28;100.00
3178;BME280;38141;42.666;23.344;2023-09-07T00:37:44;95131.22;;;20.60;100.00
3178;BME280;38141;42.666;23.344;2023-09-07T00:40:11;95165.94;;;20.83;100.00
3178;BME280;38141;42.666;23.344;2023-09-07T00:42:38;95178.81;;;20.99;100.00
3178;BME280;38141;42.666;23.344;2023-09-07T00:45:06;95177.84;;;21.05;100.00
3178;BME280;38141;42.666;23.344;2023-09-07T00:47:34;95103.63;;;20.76;100.00
3178;BME280;38141;42.666;23.344;2023-09-07T00:50:02;95155.72;;;20.96;100.00
3178;BME280;38141;42.666;23.344;2023-09-07T00:52:30;95184.78;;;21.10;100.00
3178;BME280;38141;42.666;23.344;2023-09-07T00:54:59;95163.41;;;20.89;100.00
3178;BME280;38141;42.666;23.344;2023-09-07T00:57:26;95131.13;;;20.76;100.00
3178;BME280;38141;42.666;23.344;2023-09-07T00:59:54;95169.31;;;20.74;100.00
3178;BME280;38141;42.666;23.344;2023-09-07T01:02:21;95099.03;;;20.32;100.00
3178;BME280;38141;42.666;23.344;2023-09-07T01:04:50;95090.72;;;20.19;100.00
3178;BME280;38141;42.666;23.344;2023-09-07T01:07:20;95137.75;;;20.37;100.00
3178;BME280;38141;42.666;23.344;2023-09-07T01:09:57;95147.81;;;20.28;100.00
3178;BME280;38141;42.666;23.344;2023-09-07T01:12:26;95088.16;;;19.83;100.00
3178;BME280;38141;42.666;23.344;2023-09-07T01:14:54;95106.72;;;20.08;100.00
3178;BME280;38141;42.666;23.344;2023-09-07T01:17:22;95086.44;;;19.89;100.00
3178;BME280;38141;42.666;23.344;2023-09-07T01:19:52;95104.88;;;20.18;100.00
3178;BME280;38141;42.666;23.344;2023-09-07T01:22:21;95182.91;;;20.53;100.00
3178;BME280;38141;42.666;23.344;2023-09-07T01:24:50;95142.06;;;20.38;100.00
3178;BME280;38141;42.666;23.344;2023-09-07T01:27:18;95172.88;;;20.59;100.00
3178;BME280;38141;42.666;23.344;2023-09-07T01:29:45;95126.69;;;20.25;100.00
3178;BME280;38141;42.666;23.344;2023-09-07T01:32:12;95102.28;;;19.98;100.00
3178;BME280;38141;42.666;23.344;2023-09-07T01:34:39;95170.69;;;20.54;100.00
3178;BME280;38141;42.666;23.344;2023-09-07T01:37:06;95182.41;;;20.41;100.00
3178;BME280;38141;42.666;23.344;2023-09-07T01:39:34;95172.97;;;20.42;100.00
3178;BME280;38141;42.666;23.344;2023-09-07T01:42:01;95193.50;;;20.67;100.00
3178;BME280;38141;42.666;23.344;2023-09-07T01:44:28;95157.16;;;20.59;100.00
3178;BME280;38141;42.666;23.344;2023-09-07T01:46:55;95117.78;;;20.21;100.00
3178;BME280;38141;42.666;23.344;2023-09-07T01:49:22;95095.88;;;20.33;100.00
3178;BME280;38141;42.666;23.344;2023-09-07T01:51:51;95136.09;;;20.40;100.00
3178;BME280;38141;42.666;23.344;2023-09-07T01:54:18;95168.53;;;20.74;100.00
3178;BME280;38141;42.666;23.344;2023-09-07T01:56:46;95138.94;;;20.65;100.00
3178;BME280;38141;42.666;23.344;2023-09-07T01:59:13;95156.31;;;20.62;100.00
3178;BME280;38141;42.666;23.344;2023-09-07T02:01:40;95128.56;;;20.28;100.00
3178;BME280;38141;42.666;23.344;2023-09-07T02:04:07;95061.63;;;19.93;100.00
3178;BME280;38141;42.666;23.344;2023-09-07T02:06:34;95144.06;;;20.51;100.00
3178;BME280;38141;42.666;23.344;2023-09-07T02:09:01;95163.59;;;20.69;100.00
3178;BME280;38141;42.666;23.344;2023-09-07T02:11:29;95068.84;;;19.87;100.00
3178;BME280;38141;42.666;23.344;2023-09-07T02:13:58;95176.09;;;20.57;100.00
3178;BME280;38141;42.666;23.344;2023-09-07T02:16:24;95174.97;;;20.55;100.00
3178;BME280;38141;42.666;23.344;2023-09-07T02:19:00;95057.44;;;19.72;100.00
3178;BME280;38141;42.666;23.344;2023-09-07T02:21:27;95124.25;;;20.27;100.00
3178;BME280;38141;42.666;23.344;2023-09-07T02:23:54;95098.88;;;20.23;100.00
3178;BME280;38141;42.666;23.344;2023-09-07T02:26:21;95185.78;;;20.62;100.00
3178;BME280;38141;42.666;23.344;2023-09-07T02:28:48;95087.59;;;20.05;100.00
3178;BME280;38141;42.666;23.344;2023-09-07T02:31:17;95156.59;;;20.52;100.00
3178;BME280;38141;42.666;23.344;2023-09-07T02:33:45;95140.72;;;20.30;100.00
3178;BME280;38141;42.666;23.344;2023-09-07T02:36:12;95131.84;;;20.23;100.00
3178;BME280;38141;42.666;23.344;2023-09-07T02:38:41;95144.19;;;20.31;100.00
3178;BME280;38141;42.666;23.344;2023-09-07T02:41:08;95186.34;;;20.69;100.00
3178;BME280;38141;42.666;23.344;2023-09-07T02:43:35;95131.69;;;20.14;100.00
3178;BME280;38141;42.666;23.344;2023-09-07T02:46:02;95071.44;;;19.78;100.00
3178;BME280;38141;42.666;23.344;2023-09-07T02:48:30;95182.59;;;20.63;100.00
3178;BME280;38141;42.666;23.344;2023-09-07T02:51:00;95128.41;;;20.19;100.00
3178;BME280;38141;42.666;23.344;2023-09-07T02:53:27;95194.94;;;20.42;100.00
3178;BME280;38141;42.666;23.344;2023-09-07T02:55:55;95178.63;;;20.35;100.00
3178;BME280;38141;42.666;23.344;2023-09-07T02:58:22;95202.84;;;20.40;100.00
3178;BME280;38141;42.666;23.344;2023-09-07T03:00:49;95136.50;;;20.10;100.00
3178;BME280;38141;42.666;23.344;2023-09-07T03:03:16;95193.59;;;20.34;100.00
3178;BME280;38141;42.666;23.344;2023-09-07T03:05:44;95173.56;;;20.18;100.00
3178;BME280;38141;42.666;23.344;2023-09-07T03:08:12;95196.34;;;20.34;100.00
3178;BME280;38141;42.666;23.344;2023-09-07T03:10:39;95145.06;;;19.83;100.00
3178;BME280;38141;42.666;23.344;2023-09-07T03:13:06;95183.53;;;20.28;100.00
3178;BME280;38141;42.666;23.344;2023-09-07T03:15:33;95190.31;;;20.39;100.00
3178;BME280;38141;42.666;23.344;2023-09-07T03:18:01;95172.94;;;20.26;100.00
3178;BME280;38141;42.666;23.344;2023-09-07T03:20:28;95160.81;;;19.95;100.00
3178;BME280;38141;42.666;23.344;2023-09-07T03:22:56;95154.94;;;19.80;100.00
3178;BME280;38141;42.666;23.344;2023-09-07T03:25:23;95112.53;;;19.49;100.00
3178;BME280;38141;42.666;23.344;2023-09-07T03:27:50;95195.84;;;20.07;100.00
3178;BME280;38141;42.666;23.344;2023-09-07T03:30:17;95198.59;;;19.75;100.00
3178;BME280;38141;42.666;23.344;2023-09-07T03:32:45;95208.03;;;19.90;100.00
3178;BME280;38141;42.666;23.344;2023-09-07T03:35:12;95214.13;;;19.81;100.00
3178;BME280;38141;42.666;23.344;2023-09-07T03:37:39;95216.44;;;19.83;100.00
3178;BME280;38141;42.666;23.344;2023-09-07T03:40:08;95222.97;;;19.57;100.00
3178;BME280;38141;42.666;23.344;2023-09-07T03:42:35;95212.66;;;19.61;100.00
3178;BME280;38141;42.666;23.344;2023-09-07T03:45:03;95211.19;;;19.72;100.00
3178;BME280;38141;42.666;23.344;2023-09-07T03:47:30;95220.66;;;19.71;100.00
3178;BME280;38141;42.666;23.344;2023-09-07T03:49:58;95177.56;;;19.52;100.00
3178;BME280;38141;42.666;23.344;2023-09-07T03:52:25;95166.59;;;19.68;100.00
3178;BME280;38141;42.666;23.344;2023-09-07T03:54:54;95186.66;;;19.65;100.00
3178;BME280;38141;42.666;23.344;2023-09-07T03:57:22;95217.81;;;19.75;100.00
3178;BME280;38141;42.666;23.344;2023-09-07T03:59:50;95208.13;;;19.86;100.00
3178;BME280;38141;42.666;23.344;2023-09-07T04:02:17;95242.63;;;20.04;100.00
3178;BME280;38141;42.666;23.344;2023-09-07T04:04:47;95191.31;;;19.52;100.00
3178;BME280;38141;42.666;23.344;2023-09-07T04:07:15;95187.44;;;19.82;100.00
3178;BME280;38141;42.666;23.344;2023-09-07T04:09:42;95185.13;;;19.80;100.00
3178;BME280;38141;42.666;23.344;2023-09-07T04:12:09;95246.41;;;20.10;100.00
3178;BME280;38141;42.666;23.344;2023-09-07T04:14:38;95213.44;;;19.93;100.00
3178;BME280;38141;42.666;23.344;2023-09-07T04:17:05;95177.50;;;19.56;100.00
3178;BME280;38141;42.666;23.344;2023-09-07T04:19:46;95179.03;;;19.57;100.00
3178;BME280;38141;42.666;23.344;2023-09-07T04:22:27;95191.91;;;19.60;100.00
3178;BME280;38141;42.666;23.344;2023-09-07T04:25:08;95209.91;;;19.77;100.00
3178;BME280;38141;42.666;23.344;2023-09-07T04:27:49;95241.41;;;20.21;100.00
3178;BME280;38141;42.666;23.344;2023-09-07T04:33:42;95196.44;;;19.82;100.00
3178;BME280;38141;42.666;23.344;2023-09-07T04:36:23;95152.78;;;19.56;100.00
3178;BME280;38141;42.666;23.344;2023-09-07T04:39:04;95191.81;;;19.79;100.00
3178;BME280;38141;42.666;23.344;2023-09-07T04:41:45;95172.59;;;19.63;100.00
3178;BME280;38141;42.666;23.344;2023-09-07T04:44:26;95226.06;;;19.91;100.00
3178;BME280;38141;42.666;23.344;2023-09-07T04:47:04;95234.13;;;20.14;100.00
3178;BME280;38141;42.666;23.344;2023-09-07T04:52:49;95229.22;;;20.06;100.00
3178;BME280;38141;42.666;23.344;2023-09-07T04:58:32;95225.19;;;20.10;100.00
3178;BME280;38141;42.666;23.344;2023-09-07T05:01:02;95215.16;;;19.87;100.00
3178;BME280;38141;42.666;23.344;2023-09-07T05:03:29;95227.88;;;19.97;100.00
3178;BME280;38141;42.666;23.344;2023-09-07T05:05:56;95231.91;;;19.93;100.00
3178;BME280;38141;42.666;23.344;2023-09-07T05:14:34;95174.31;;;19.89;100.00
3178;BME280;38141;42.666;23.344;2023-09-07T05:17:03;95165.56;;;19.78;100.00
3178;BME280;38141;42.666;23.344;2023-09-07T05:19:44;95235.59;;;20.35;100.00
3178;BME280;38141;42.666;23.344;2023-09-07T05:22:39;95264.59;;;20.36;100.00
3178;BME280;38141;42.666;23.344;2023-09-07T05:25:32;95240.19;;;20.22;100.00
3178;BME280;38141;42.666;23.344;2023-09-07T05:28:14;95160.69;;;19.70;100.00
3178;BME280;38141;42.666;23.344;2023-09-07T05:37:27;95240.75;;;20.17;100.00
3178;BME280;38141;42.666;23.344;2023-09-07T05:40:08;95259.88;;;20.20;100.00
3178;BME280;38141;42.666;23.344;2023-09-07T05:43:06;95272.22;;;20.45;100.00
3178;BME280;38141;42.666;23.344;2023-09-07T05:45:35;95207.69;;;20.20;100.00
3178;BME280;38141;42.666;23.344;2023-09-07T05:48:18;95163.34;;;19.89;100.00
3178;BME280;38141;42.666;23.344;2023-09-07T05:50:59;95187.56;;;20.23;100.00
3178;BME280;38141;42.666;23.344;2023-09-07T05:53:29;95192.47;;;20.32;100.00
3178;BME280;38141;42.666;23.344;2023-09-07T05:56:08;95244.09;;;20.98;100.00
3178;BME280;38141;42.666;23.344;2023-09-07T06:01:56;95150.41;;;20.35;100.00
3178;BME280;38141;42.666;23.344;2023-09-07T06:04:24;95205.78;;;21.45;100.00
3178;BME280;38141;42.666;23.344;2023-09-07T06:07:05;95199.44;;;22.21;100.00
3178;BME280;38141;42.666;23.344;2023-09-07T06:09:34;95242.66;;;22.24;100.00
3178;BME280;38141;42.666;23.344;2023-09-07T06:12:02;95188.00;;;23.00;100.00
3178;BME280;38141;42.666;23.344;2023-09-07T06:14:30;95218.06;;;23.51;100.00
3178;BME280;38141;42.666;23.344;2023-09-07T06:16:59;95184.03;;;24.12;97.47
3178;BME280;38141;42.666;23.344;2023-09-07T06:19:26;95194.25;;;24.97;89.13
3178;BME280;38141;42.666;23.344;2023-09-07T06:21:53;95196.19;;;25.33;83.84
3178;BME280;38141;42.666;23.344;2023-09-07T06:24:20;95221.97;;;25.66;84.13
3178;BME280;38141;42.666;23.344;2023-09-07T06:26:47;95194.28;;;25.90;80.00
3178;BME280;38141;42.666;23.344;2023-09-07T06:29:15;95228.28;;;26.32;76.58
3178;BME280;38141;42.666;23.344;2023-09-07T06:31:43;95215.41;;;25.87;78.35
3178;BME280;38141;42.666;23.344;2023-09-07T06:34:12;95154.44;;;26.73;73.36
3178;BME280;38141;42.666;23.344;2023-09-07T06:36:39;95183.03;;;26.88;70.73
3178;BME280;38141;42.666;23.344;2023-09-07T06:39:06;95184.06;;;26.91;68.19
3178;BME280;38141;42.666;23.344;2023-09-07T06:41:34;95220.69;;;27.92;65.28
3178;BME280;38141;42.666;23.344;2023-09-07T06:44:02;95222.41;;;28.39;63.49
3178;BME280;38141;42.666;23.344;2023-09-07T06:46:29;95203.41;;;28.03;64.97
3178;BME280;38141;42.666;23.344;2023-09-07T06:48:56;95172.06;;;28.63;60.53
3178;BME280;38141;42.666;23.344;2023-09-07T06:51:25;95222.81;;;28.12;61.62
3178;BME280;38141;42.666;23.344;2023-09-07T06:53:52;95206.56;;;28.65;60.06
3178;BME280;38141;42.666;23.344;2023-09-07T06:56:19;95220.03;;;27.82;60.68
3178;BME280;38141;42.666;23.344;2023-09-07T06:58:46;95218.31;;;28.95;58.08
3178;BME280;38141;42.666;23.344;2023-09-07T07:01:13;95169.84;;;28.67;57.25
3178;BME280;38141;42.666;23.344;2023-09-07T07:03:40;95180.16;;;28.81;58.00
3178;BME280;38141;42.666;23.344;2023-09-07T07:06:08;95241.00;;;28.68;57.69
3178;BME280;38141;42.666;23.344;2023-09-07T07:08:36;95238.59;;;28.76;59.81
3178;BME280;38141;42.666;23.344;2023-09-07T07:11:09;95197.78;;;28.52;58.00
3178;BME280;38141;42.666;23.344;2023-09-07T07:13:37;95153.56;;;28.40;57.23
3178;BME280;38141;42.666;23.344;2023-09-07T07:16:22;95166.91;;;28.70;56.36
3178;BME280;38141;42.666;23.344;2023-09-07T07:19:03;95236.00;;;28.52;56.49
3178;BME280;38141;42.666;23.344;2023-09-07T07:21:46;95252.75;;;28.57;56.68
3178;BME280;38141;42.666;23.344;2023-09-07T07:24:30;95182.16;;;28.40;58.30
3178;BME280;38141;42.666;23.344;2023-09-07T07:27:17;95265.53;;;28.29;57.27
3178;BME280;38141;42.666;23.344;2023-09-07T07:29:44;95183.13;;;28.17;56.74
3178;BME280;38141;42.666;23.344;2023-09-07T07:32:11;95187.59;;;28.90;55.69
3178;BME280;38141;42.666;23.344;2023-09-07T07:34:38;95225.75;;;29.50;54.41
3178;BME280;38141;42.666;23.344;2023-09-07T07:37:06;95251.59;;;29.50;54.63
3178;BME280;38141;42.666;23.344;2023-09-07T07:39:41;95261.56;;;29.11;56.74
3178;BME280;38141;42.666;23.344;2023-09-07T07:42:09;95250.34;;;29.51;55.71
3178;BME280;38141;42.666;23.344;2023-09-07T07:44:41;95177.22;;;28.90;55.49
3178;BME280;38141;42.666;23.344;2023-09-07T07:47:08;95211.72;;;28.93;53.58
3178;BME280;38141;42.666;23.344;2023-09-07T07:49:37;95241.66;;;28.98;55.23
3178;BME280;38141;42.666;23.344;2023-09-07T07:52:04;95221.09;;;28.55;55.01
3178;BME280;38141;42.666;23.344;2023-09-07T07:54:33;95223.63;;;28.03;55.00
3178;BME280;38141;42.666;23.344;2023-09-07T07:57:09;95229.84;;;26.57;57.96
3178;BME280;38141;42.666;23.344;2023-09-07T07:59:39;95270.03;;;27.09;58.27
3178;BME280;38141;42.666;23.344;2023-09-07T08:02:11;95206.22;;;27.15;57.37
3178;BME280;38141;42.666;23.344;2023-09-07T08:04:53;95193.28;;;27.26;55.38
3178;BME280;38141;42.666;23.344;2023-09-07T08:07:34;95210.25;;;27.14;56.71
3178;BME280;38141;42.666;23.344;2023-09-07T08:10:16;95201.16;;;27.42;56.78
3178;BME280;38141;42.666;23.344;2023-09-07T08:16:13;95166.56;;;26.13;60.83
3178;BME280;38141;42.666;23.344;2023-09-07T08:18:41;95170.72;;;26.42;61.15
3178;BME280;38141;42.666;23.344;2023-09-07T08:21:15;95169.84;;;26.36;60.72
3178;BME280;38141;42.666;23.344;2023-09-07T08:23:43;95186.84;;;26.52;60.93
3178;BME280;38141;42.666;23.344;2023-09-07T08:26:10;95175.28;;;26.92;59.81
3178;BME280;38141;42.666;23.344;2023-09-07T08:31:09;95186.28;;;26.63;59.28
3178;BME280;38141;42.666;23.344;2023-09-07T08:33:53;95150.94;;;26.87;57.32
3178;BME280;38141;42.666;23.344;2023-09-07T08:36:20;95209.22;;;27.84;55.15
3178;BME280;38141;42.666;23.344;2023-09-07T08:38:50;95246.75;;;28.24;54.70
3178;BME280;38141;42.666;23.344;2023-09-07T08:41:20;95213.56;;;28.41;53.39
3178;BME280;38141;42.666;23.344;2023-09-07T08:43:49;95211.22;;;28.34;52.57
3178;BME280;38141;42.666;23.344;2023-09-07T08:46:19;95184.91;;;28.35;51.91
3178;BME280;38141;42.666;23.344;2023-09-07T08:48:50;95172.38;;;28.24;52.13
3178;BME280;38141;42.666;23.344;2023-09-07T08:51:19;95237.63;;;28.23;52.39
3178;BME280;38141;42.666;23.344;2023-09-07T08:53:55;95211.03;;;28.22;52.08
3178;BME280;38141;42.666;23.344;2023-09-07T08:56:22;95186.66;;;27.82;53.11
3178;BME280;38141;42.666;23.344;2023-09-07T08:58:52;95206.84;;;28.88;50.25
3178;BME280;38141;42.666;23.344;2023-09-07T09:01:22;95212.56;;;29.82;48.34
3178;BME280;38141;42.666;23.344;2023-09-07T09:03:53;95204.81;;;29.34;47.00
3178;BME280;38141;42.666;23.344;2023-09-07T09:06:21;95176.84;;;29.03;47.40
3178;BME280;38141;42.666;23.344;2023-09-07T09:08:59;95235.34;;;30.43;44.89
3178;BME280;38141;42.666;23.344;2023-09-07T09:11:39;95183.09;;;31.14;43.38
3178;BME280;38141;42.666;23.344;2023-09-07T09:14:16;95183.41;;;31.83;41.26
3178;BME280;38141;42.666;23.344;2023-09-07T09:16:52;95180.03;;;31.17;41.25
3178;BME280;38141;42.666;23.344;2023-09-07T09:19:31;95206.56;;;31.72;40.56
3178;BME280;38141;42.666;23.344;2023-09-07T09:22:17;95224.13;;;31.84;40.58
3178;BME280;38141;42.666;23.344;2023-09-07T09:24:48;95154.66;;;30.51;42.60
3178;BME280;38141;42.666;23.344;2023-09-07T09:27:15;95185.44;;;32.10;39.82
3178;BME280;38141;42.666;23.344;2023-09-07T09:32:47;95146.19;;;31.04;40.59
3178;BME280;38141;42.666;23.344;2023-09-07T09:35:17;95169.00;;;30.86;41.52
3178;BME280;38141;42.666;23.344;2023-09-07T09:37:46;95144.97;;;31.22;40.83
3178;BME280;38141;42.666;23.344;2023-09-07T09:40:15;95220.69;;;31.13;41.64
3178;BME280;38141;42.666;23.344;2023-09-07T09:42:43;95182.88;;;31.34;40.27
3178;BME280;38141;42.666;23.344;2023-09-07T09:45:12;95129.72;;;31.28;40.42
3178;BME280;38141;42.666;23.344;2023-09-07T09:47:40;95139.16;;;30.50;40.81
3178;BME280;38141;42.666;23.344;2023-09-07T09:50:20;95177.22;;;31.01;41.20
3178;BME280;38141;42.666;23.344;2023-09-07T09:52:48;95191.09;;;30.78;41.10
3178;BME280;38141;42.666;23.344;2023-09-07T09:55:29;95187.75;;;29.84;43.56
3178;BME280;38141;42.666;23.344;2023-09-07T09:57:57;95215.53;;;29.41;43.42
3178;BME280;38141;42.666;23.344;2023-09-07T10:00:24;95118.84;;;28.15;45.54
3178;BME280;38141;42.666;23.344;2023-09-07T10:03:05;95227.38;;;28.90;45.63
3178;BME280;38141;42.666;23.344;2023-09-07T10:05:35;95127.56;;;27.09;47.55
3178;BME280;38141;42.666;23.344;2023-09-07T10:08:03;95121.19;;;27.67;46.84
3178;BME280;38141;42.666;23.344;2023-09-07T10:10:34;95219.56;;;28.94;45.21
3178;BME280;38141;42.666;23.344;2023-09-07T10:13:03;95168.22;;;28.35;46.67
3178;BME280;38141;42.666;23.344;2023-09-07T10:15:37;95122.78;;;27.88;46.61
3178;BME280;38141;42.666;23.344;2023-09-07T10:18:20;95103.56;;;27.90;45.87
3178;BME280;38141;42.666;23.344;2023-09-07T10:20:54;95167.53;;;28.86;45.88
3178;BME280;38141;42.666;23.344;2023-09-07T10:23:36;95127.97;;;28.36;46.14
3178;BME280;38141;42.666;23.344;2023-09-07T10:26:12;95160.84;;;28.98;44.95
3178;BME280;38141;42.666;23.344;2023-09-07T10:28:40;95143.34;;;28.71;45.69
3178;BME280;38141;42.666;23.344;2023-09-07T10:31:13;95094.25;;;28.74;45.11
3178;BME280;38141;42.666;23.344;2023-09-07T10:40:58;95184.69;;;28.03;46.78
3178;BME280;38141;42.666;23.344;2023-09-07T10:43:46;95133.22;;;27.93;47.72
3178;BME280;38141;42.666;23.344;2023-09-07T10:46:14;95146.56;;;27.89;46.15
3178;BME280;38141;42.666;23.344;2023-09-07T10:48:42;95167.50;;;27.84;46.24
3178;BME280;38141;42.666;23.344;2023-09-07T10:51:09;95178.19;;;27.92;47.03
3178;BME280;38141;42.666;23.344;2023-09-07T10:53:36;95165.94;;;28.18;46.62
3178;BME280;38141;42.666;23.344;2023-09-07T10:56:05;95126.13;;;27.42;46.76
3178;BME280;38141;42.666;23.344;2023-09-07T10:58:34;95151.41;;;27.44;47.31
3178;BME280;38141;42.666;23.344;2023-09-07T11:01:05;95166.38;;;27.62;47.34
3178;BME280;38141;42.666;23.344;2023-09-07T11:03:33;95177.78;;;27.34;48.06
3178;BME280;38141;42.666;23.344;2023-09-07T11:06:06;95138.22;;;26.95;48.67
3178;BME280;38141;42.666;23.344;2023-09-07T11:08:33;95090.22;;;26.27;48.91
3178;BME280;38141;42.666;23.344;2023-09-07T11:11:01;95159.13;;;26.82;49.12
3178;BME280;38141;42.666;23.344;2023-09-07T12:04:51;95084.13;;;25.34;55.10
3178;BME280;38141;42.666;23.344;2023-09-07T12:07:19;95056.28;;;24.95;54.33
3178;BME280;38141;42.666;23.344;2023-09-07T12:09:47;95094.66;;;25.53;54.53
3178;BME280;38141;42.666;23.344;2023-09-07T12:12:15;95160.03;;;26.02;53.81
3178;BME280;38141;42.666;23.344;2023-09-07T12:14:42;95091.78;;;25.48;54.44
3178;BME280;38141;42.666;23.344;2023-09-07T12:17:09;95090.16;;;25.65;54.21
3178;BME280;38141;42.666;23.344;2023-09-07T12:19:36;95062.09;;;25.39;54.07
3178;BME280;38141;42.666;23.344;2023-09-07T12:22:05;95075.41;;;25.59;55.04
3178;BME280;38141;42.666;23.344;2023-09-07T12:24:33;95073.28;;;25.45;55.62
3178;BME280;38141;42.666;23.344;2023-09-07T12:27:00;95129.56;;;26.17;53.31
3178;BME280;38141;42.666;23.344;2023-09-07T12:29:27;95071.88;;;25.82;53.41
3178;BME280;38141;42.666;23.344;2023-09-07T12:31:56;95042.16;;;25.59;52.67
3178;BME280;38141;42.666;23.344;2023-09-07T12:34:26;95090.63;;;25.87;53.48
3178;BME280;38141;42.666;23.344;2023-09-07T12:36:53;95089.09;;;25.62;54.12
3178;BME280;38141;42.666;23.344;2023-09-07T12:39:21;95104.97;;;25.86;53.82
3178;BME280;38141;42.666;23.344;2023-09-07T12:41:48;95087.94;;;25.78;53.73
3178;BME280;38141;42.666;23.344;2023-09-07T12:44:24;95107.09;;;26.15;52.61
3178;BME280;38141;42.666;23.344;2023-09-07T12:46:51;95090.56;;;25.73;52.63
3178;BME280;38141;42.666;23.344;2023-09-07T12:49:25;95112.75;;;25.73;53.19
3178;BME280;38141;42.666;23.344;2023-09-07T12:51:53;95118.88;;;25.44;53.37
3178;BME280;38141;42.666;23.344;2023-09-07T12:54:21;95119.53;;;25.72;53.64
3178;BME280;38141;42.666;23.344;2023-09-07T12:56:49;95062.06;;;25.48;52.49
3178;BME280;38141;42.666;23.344;2023-09-07T12:59:17;95070.63;;;25.59;53.22
3178;BME280;38141;42.666;23.344;2023-09-07T13:01:56;95093.81;;;25.95;52.12
3178;BME280;38141;42.666;23.344;2023-09-07T13:04:30;95133.19;;;26.32;51.96
3178;BME280;38141;42.666;23.344;2023-09-07T13:06:57;95118.72;;;26.28;51.70
3178;BME280;38141;42.666;23.344;2023-09-07T13:09:28;95068.44;;;26.11;52.24
3178;BME280;38141;42.666;23.344;2023-09-07T13:11:57;95078.59;;;26.67;50.91
3178;BME280;38141;42.666;23.344;2023-09-07T13:14:24;95087.41;;;26.80;50.39
3178;BME280;38141;42.666;23.344;2023-09-07T13:16:59;95104.31;;;26.91;50.17
3178;BME280;38141;42.666;23.344;2023-09-07T13:19:33;95142.72;;;27.22;50.62
3178;BME280;38141;42.666;23.344;2023-09-07T13:22:00;95120.69;;;26.51;50.56
3178;BME280;38141;42.666;23.344;2023-09-07T13:24:29;95123.16;;;26.87;50.59
3178;BME280;38141;42.666;23.344;2023-09-07T13:26:56;95145.31;;;27.11;50.40
3178;BME280;38141;42.666;23.344;2023-09-07T13:29:26;95085.13;;;26.64;50.45
3178;BME280;38141;42.666;23.344;2023-09-07T13:31:53;95104.56;;;26.79;50.56
3178;BME280;38141;42.666;23.344;2023-09-07T13:34:21;95113.09;;;27.19;49.23
3178;BME280;38141;42.666;23.344;2023-09-07T13:36:48;95085.59;;;26.77;49.65
3178;BME280;38141;42.666;23.344;2023-09-07T13:39:17;95099.03;;;26.40;50.80
3178;BME280;38141;42.666;23.344;2023-09-07T14:03:12;95085.22;;;25.69;52.60
3178;BME280;38141;42.666;23.344;2023-09-07T14:05:40;95119.94;;;26.03;52.83
3178;BME280;38141;42.666;23.344;2023-09-07T14:08:08;95140.38;;;25.91;53.65
3178;BME280;38141;42.666;23.344;2023-09-07T14:10:35;95137.91;;;25.93;53.21
3178;BME280;38141;42.666;23.344;2023-09-07T14:13:03;95082.88;;;25.44;54.08
3178;BME280;38141;42.666;23.344;2023-09-07T14:15:42;95108.41;;;25.48;53.83
3178;BME280;38141;42.666;23.344;2023-09-07T14:47:01;95111.97;;;25.39;54.41
3178;BME280;38141;42.666;23.344;2023-09-07T14:49:29;95131.03;;;25.46;54.61
3178;BME280;38141;42.666;23.344;2023-09-07T14:51:57;95075.38;;;25.26;55.08
3178;BME280;38141;42.666;23.344;2023-09-07T14:54:25;95071.59;;;25.14;55.19
3178;BME280;38141;42.666;23.344;2023-09-07T14:56:52;95113.28;;;25.20;54.85
3178;BME280;38141;42.666;23.344;2023-09-07T14:59:19;95038.13;;;24.94;54.98
3178;BME280;38141;42.666;23.344;2023-09-07T15:01:46;95066.88;;;25.06;56.09
3178;BME280;38141;42.666;23.344;2023-09-07T15:04:14;95132.31;;;25.27;55.81
3178;BME280;38141;42.666;23.344;2023-09-07T15:06:43;95034.22;;;24.59;55.12
3178;BME280;38141;42.666;23.344;2023-09-07T15:09:11;95136.84;;;25.15;55.21
3178;BME280;38141;42.666;23.344;2023-09-07T15:11:38;95096.66;;;25.20;55.04
3178;BME280;38141;42.666;23.344;2023-09-07T15:14:34;95019.72;;;24.73;55.40
3178;BME280;38141;42.666;23.344;2023-09-07T15:17:17;95103.06;;;25.26;55.21
3178;BME280;38141;42.666;23.344;2023-09-07T16:51:15;95131.97;;;24.92;64.52
3178;BME280;38141;42.666;23.344;2023-09-07T16:53:57;95142.94;;;25.29;66.17
3178;BME280;38141;42.666;23.344;2023-09-07T16:56:44;95087.97;;;24.76;68.55
3178;BME280;38141;42.666;23.344;2023-09-07T17:02:48;95045.75;;;24.57;69.76
3178;BME280;38141;42.666;23.344;2023-09-07T17:05:35;95091.22;;;24.93;69.67
3178;BME280;38141;42.666;23.344;2023-09-07T17:14:51;95146.59;;;24.93;72.83
3178;BME280;38141;42.666;23.344;2023-09-07T17:17:18;95148.75;;;24.89;74.51